createdAt,value
2019-04-22T00:01:34.341Z,75.70
2019-04-22T00:04:12.023Z,75.90
2019-04-22T00:07:03.074Z,76.60
2019-04-22T00:09:38.819Z,76.80
2019-04-22T00:12:14.084Z,77.50
2019-04-22T00:14:43.839Z,77.90
2019-04-22T00:17:25.100Z,78.30
2019-04-22T00:19:57.606Z,78.40
2019-04-22T00:24:59.831Z,78.50
2019-04-22T00:27:35.735Z,78.00
2019-04-22T00:32:46.343Z,77.90
2019-04-22T00:35:18.197Z,78.10
2019-04-22T00:37:58.120Z,77.80
2019-04-22T00:40:30.878Z,78.20
2019-04-22T00:43:03.494Z,78.70
2019-04-22T00:45:38.547Z,78.80
2019-04-22T00:48:15.937Z,79.10
2019-04-22T00:50:49.613Z,78.80
2019-04-22T00:53:23.940Z,79.10
2019-04-22T00:56:14.337Z,78.70
2019-04-22T00:58:40.783Z,78.20
2019-04-22T01:03:57.039Z,78.50
2019-04-22T01:06:20.510Z,78.90
2019-04-22T01:09:00.212Z,78.80
2019-04-22T01:11:29.488Z,79.40
2019-04-22T01:14:03.158Z,79.70
2019-04-22T01:16:37.740Z,79.50
2019-04-22T01:19:07.075Z,79.90
2019-04-22T01:21:40.534Z,80.30
2019-04-22T01:24:17.521Z,80.80
2019-04-22T01:26:43.479Z,82.30
2019-04-22T01:29:11.013Z,82.60
2019-04-22T01:31:38.244Z,82.90
2019-04-22T01:34:23.370Z,83.70
2019-04-22T01:37:00.000Z,84.10
2019-04-22T01:39:43.927Z,84.50
2019-04-22T01:42:10.828Z,84.90
2019-04-22T01:44:49.083Z,85.50
2019-04-22T01:47:26.446Z,85.50
2019-04-22T01:49:52.737Z,85.90
2019-04-22T01:52:29.692Z,86.40
2019-04-22T01:55:04.322Z,86.70
2019-04-22T01:57:35.019Z,86.80
2019-04-22T02:00:01.051Z,87.40
2019-04-22T02:02:41.894Z,87.70
2019-04-22T02:07:51.550Z,88.00
2019-04-22T02:10:30.136Z,88.30
2019-04-22T02:12:58.831Z,88.60
2019-04-22T02:15:25.909Z,88.80
2019-04-22T02:18:03.301Z,89.20
2019-04-22T02:26:07.155Z,90.10
2019-04-22T02:36:30.422Z,91.10
2019-04-22T02:46:44.966Z,91.80
2019-04-22T02:51:32.747Z,92.20
2019-04-22T02:57:04.384Z,92.60
2019-04-22T03:01:47.431Z,92.90
2019-04-22T03:06:49.499Z,93.30
2019-04-22T03:14:45.633Z,93.40
2019-04-22T03:17:18.678Z,93.40
2019-04-22T03:25:23.604Z,93.70
2019-04-22T03:33:05.472Z,94.00
2019-04-22T03:55:43.434Z,94.10
2019-04-22T03:58:05.489Z,94.10
2019-04-22T04:01:06.780Z,94.00
2019-04-22T04:03:19.336Z,94.10
2019-04-22T04:05:59.747Z,94.30
2019-04-22T04:08:39.039Z,94.60
2019-04-22T04:10:58.115Z,94.50
2019-04-22T04:13:49.679Z,94.80
2019-04-22T04:16:16.080Z,95.10
2019-04-22T04:19:05.053Z,95.10
2019-04-22T04:21:26.837Z,95.30
2019-04-22T04:26:42.745Z,96.00
2019-04-22T04:31:35.429Z,96.70
2019-04-22T04:34:14.775Z,96.10
2019-04-22T04:36:42.437Z,96.30
2019-04-22T04:39:21.307Z,96.50
2019-04-22T04:44:23.289Z,96.50
2019-04-22T04:49:48.014Z,96.70
2019-04-22T04:52:06.427Z,96.90
2019-04-22T04:57:11.299Z,97.00
2019-04-22T05:00:11.160Z,97.00
2019-04-22T05:05:00.148Z,97.10
2019-04-22T05:09:51.707Z,97.50
2019-04-22T05:12:41.744Z,97.70
2019-04-22T05:15:00.387Z,97.30
2019-04-22T05:20:07.357Z,97.50
2019-04-22T05:22:37.740Z,96.70
2019-04-22T05:32:43.289Z,95.50
2019-04-22T05:35:20.773Z,94.90
2019-04-22T05:37:58.078Z,94.50
2019-04-22T05:40:22.960Z,94.00
2019-04-22T05:42:58.898Z,93.10
2019-04-22T05:45:32.827Z,92.90
2019-04-22T05:48:00.958Z,93.10
2019-04-22T05:50:37.322Z,92.80
2019-04-22T05:53:07.129Z,92.20
2019-04-22T05:55:47.929Z,90.90
2019-04-22T05:58:15.292Z,90.70
2019-04-22T06:01:36.727Z,88.30
2019-04-22T06:03:46.139Z,90.50
2019-04-22T06:06:15.079Z,91.50
2019-04-22T06:08:51.223Z,91.10
2019-04-22T06:11:26.756Z,91.30
2019-04-22T06:13:59.276Z,91.10
2019-04-22T06:16:43.109Z,87.90
2019-04-22T06:21:42.400Z,88.40
2019-04-22T06:24:28.001Z,91.10
2019-04-22T06:27:08.504Z,87.70
2019-04-22T06:29:22.196Z,88.00
2019-04-22T06:32:17.608Z,87.90
2019-04-22T06:34:28.701Z,83.50
2019-04-22T06:37:07.355Z,86.70
2019-04-22T06:42:09.808Z,81.70
2019-04-22T06:44:44.099Z,68.80
2019-04-22T06:47:21.088Z,69.60
2019-04-22T06:49:53.306Z,63.70
2019-04-22T06:52:22.621Z,66.20
2019-04-22T06:54:54.535Z,66.40
2019-04-22T06:57:25.450Z,61.10
2019-04-22T07:00:08.309Z,58.00
2019-04-22T07:02:45.269Z,63.40
2019-04-22T07:05:07.784Z,63.40
2019-04-22T07:07:40.006Z,64.80
2019-04-22T07:10:23.848Z,58.00
2019-04-22T07:13:06.447Z,58.70
2019-04-22T07:15:36.988Z,58.00
2019-04-22T07:17:58.428Z,57.70
2019-04-22T07:23:04.336Z,55.70
2019-04-22T07:25:34.927Z,56.40
2019-04-22T07:28:05.444Z,56.40
2019-04-22T07:30:41.164Z,55.70
2019-04-22T07:36:00.642Z,55.00
2019-04-22T07:38:23.831Z,53.80
2019-04-22T07:40:51.904Z,56.90
2019-04-22T07:45:55.021Z,56.30
2019-04-22T07:48:43.029Z,54.00
2019-04-22T07:51:10.068Z,52.90
2019-04-22T07:53:34.235Z,52.90
2019-04-22T07:56:12.227Z,53.30
2019-04-22T07:58:42.132Z,51.80
2019-04-22T08:01:24.616Z,53.00
2019-04-22T08:04:01.897Z,51.50
2019-04-22T08:06:26.406Z,53.40
2019-04-22T08:09:00.279Z,49.70
2019-04-22T08:11:47.937Z,51.60
2019-04-22T08:14:10.514Z,50.60
2019-04-22T08:16:41.960Z,50.50
2019-04-22T08:19:15.790Z,48.00
2019-04-22T08:21:46.220Z,52.50
2019-04-22T08:24:22.404Z,51.50
2019-04-22T08:26:53.184Z,48.60
2019-04-22T08:29:37.701Z,48.00
2019-04-22T08:32:01.201Z,48.60
2019-04-22T08:34:29.877Z,47.70
2019-04-22T08:37:37.418Z,46.20
2019-04-22T08:39:35.877Z,44.90
2019-04-22T08:42:17.940Z,46.50
2019-04-22T08:45:05.867Z,46.40
2019-04-22T08:47:27.735Z,46.40
2019-04-22T08:52:31.932Z,46.70
2019-04-22T08:55:07.431Z,45.80
2019-04-22T09:00:04.038Z,45.00
2019-04-22T09:02:38.623Z,46.80
2019-04-22T09:05:33.558Z,44.70
2019-04-22T09:07:48.935Z,44.70
2019-04-22T09:10:21.765Z,43.40
2019-04-22T09:15:26.424Z,45.20
2019-04-22T09:18:02.096Z,43.50
2019-04-22T09:20:32.895Z,42.90
2019-04-22T09:23:09.322Z,43.50
2019-04-22T09:28:31.133Z,42.70
2019-04-22T09:30:52.438Z,42.10
2019-04-22T09:33:20.395Z,44.10
2019-04-22T09:41:00.654Z,42.20
2019-04-22T09:43:40.754Z,41.20
2019-04-22T09:46:08.546Z,41.80
2019-04-22T09:48:43.504Z,42.10
2019-04-22T09:51:12.042Z,41.60
2019-04-22T09:53:54.862Z,42.70
2019-04-22T09:56:23.852Z,42.50
2019-04-22T10:04:02.081Z,41.00
2019-04-22T10:06:35.317Z,39.50
2019-04-22T10:09:26.973Z,41.90
2019-04-22T10:11:39.104Z,41.50
2019-04-22T10:14:13.888Z,42.60
2019-04-22T10:19:18.687Z,41.40
2019-04-22T10:24:19.094Z,39.50
2019-04-22T10:26:59.989Z,40.20
2019-04-22T10:29:36.777Z,40.00
2019-04-22T10:32:07.036Z,38.70
2019-04-22T10:34:27.013Z,38.30
2019-04-22T10:36:52.755Z,40.00
2019-04-22T10:39:33.768Z,39.70
2019-04-22T10:41:54.645Z,39.70
2019-04-22T10:44:27.059Z,37.40
2019-04-22T10:46:59.965Z,35.50
2019-04-22T10:49:31.794Z,36.80
2019-04-22T10:52:04.566Z,37.00
2019-04-22T10:54:36.145Z,36.10
2019-04-22T10:57:08.638Z,36.40
2019-04-22T10:59:40.812Z,36.80
2019-04-22T11:02:13.656Z,37.10
2019-04-22T11:04:46.040Z,35.40
2019-04-22T11:07:19.009Z,37.70
2019-04-22T11:09:59.239Z,37.00
2019-04-22T11:12:26.989Z,38.50
2019-04-22T11:14:58.089Z,38.10
2019-04-22T11:17:29.725Z,34.80
2019-04-22T11:20:01.914Z,36.70
2019-04-22T11:22:36.847Z,35.40
2019-04-22T11:25:07.626Z,34.90
2019-04-22T11:27:39.197Z,34.40
2019-04-22T11:30:11.454Z,32.40
2019-04-22T11:32:44.505Z,34.50
2019-04-22T11:35:16.399Z,35.10
2019-04-22T11:37:48.673Z,35.60
2019-04-22T11:40:30.045Z,32.70
2019-04-22T11:42:56.531Z,34.00
2019-04-22T11:45:29.177Z,33.90
2019-04-22T11:48:01.481Z,32.10
2019-04-22T11:50:33.576Z,31.60
2019-04-22T11:53:07.099Z,32.50
2019-04-22T11:55:38.656Z,33.10
2019-04-22T11:58:10.664Z,30.90
2019-04-22T12:00:43.297Z,33.80
2019-04-22T12:03:14.874Z,34.10
2019-04-22T12:05:47.923Z,35.10
2019-04-22T12:08:20.725Z,33.00
2019-04-22T12:10:56.920Z,32.20
2019-04-22T12:13:26.150Z,31.30
2019-04-22T12:15:58.846Z,32.50
2019-04-22T12:18:31.249Z,31.90
2019-04-22T12:21:03.589Z,33.50
2019-04-22T12:23:37.050Z,33.30
2019-04-22T12:26:12.794Z,31.70
2019-04-22T12:28:42.078Z,30.90
2019-04-22T12:31:13.671Z,32.20
2019-04-22T12:33:45.451Z,31.20
2019-04-22T12:36:18.285Z,35.00
2019-04-22T12:38:49.806Z,31.40
2019-04-22T12:41:21.690Z,33.20
2019-04-22T12:43:53.490Z,32.50
2019-04-22T12:46:26.319Z,32.50
2019-04-22T12:48:58.252Z,33.70
2019-04-22T12:51:31.333Z,32.50
2019-04-22T12:54:03.361Z,33.80
2019-04-22T12:56:35.473Z,31.60
2019-04-22T12:59:07.641Z,32.30
2019-04-22T13:01:39.539Z,33.00
2019-04-22T13:04:14.188Z,31.60
2019-04-22T13:06:46.065Z,32.00
2019-04-22T13:09:19.495Z,30.00
2019-04-22T13:11:51.116Z,30.30
2019-04-22T13:14:23.195Z,32.20
2019-04-22T13:16:55.170Z,31.20
2019-04-22T13:19:28.268Z,31.20
2019-04-22T13:22:00.945Z,33.30
2019-04-22T13:24:34.055Z,30.70
2019-04-22T13:27:06.681Z,32.00
2019-04-22T13:29:39.346Z,32.50
2019-04-22T13:32:10.960Z,31.60
2019-04-22T13:34:49.440Z,32.80
2019-04-22T13:37:16.989Z,32.60
2019-04-22T13:39:49.262Z,33.10
2019-04-22T13:42:23.211Z,33.70
2019-04-22T13:44:53.780Z,31.80
2019-04-22T13:47:41.524Z,32.30
2019-04-22T13:50:34.572Z,32.80
2019-04-22T13:53:18.290Z,33.10
2019-04-22T13:55:41.464Z,32.80
2019-04-22T13:57:57.245Z,34.20
2019-04-22T14:00:20.547Z,34.50
2019-04-22T14:03:00.459Z,33.90
2019-04-22T14:05:32.924Z,35.60
2019-04-22T14:08:06.008Z,33.40
2019-04-22T14:10:38.646Z,32.50
2019-04-22T14:13:11.951Z,32.10
2019-04-22T14:15:43.972Z,35.60
2019-04-22T14:18:16.915Z,33.40
2019-04-22T14:20:49.197Z,31.60
2019-04-22T14:23:22.447Z,33.30
2019-04-22T14:25:54.785Z,31.60
2019-04-22T14:28:28.877Z,31.80
2019-04-22T14:31:00.476Z,34.10
2019-04-22T14:33:32.138Z,32.50
2019-04-22T14:36:04.763Z,33.40
2019-04-22T14:38:36.787Z,35.40
2019-04-22T14:41:12.086Z,33.80
2019-04-22T14:44:49.512Z,33.20
2019-04-22T14:46:39.187Z,32.60
2019-04-22T14:49:10.410Z,32.70
2019-04-22T14:51:44.163Z,32.50
2019-04-22T14:54:12.690Z,33.10
2019-04-22T14:56:28.659Z,34.90
2019-04-22T14:59:00.803Z,35.30
2019-04-22T15:01:32.915Z,34.90
2019-04-22T15:04:05.443Z,34.70
2019-04-22T15:06:38.029Z,34.70
2019-04-22T15:09:10.368Z,35.30
2019-04-22T15:11:54.868Z,35.00
2019-04-22T15:14:17.134Z,34.30
2019-04-22T15:17:07.021Z,32.50
2019-04-22T15:19:45.920Z,32.20
2019-04-22T15:22:18.683Z,31.90
2019-04-22T15:24:50.614Z,33.80
2019-04-22T15:27:22.572Z,33.70
2019-04-22T15:29:54.147Z,33.70
2019-04-22T15:32:25.453Z,33.80
2019-04-22T15:34:57.328Z,33.90
2019-04-22T15:37:29.010Z,33.50
2019-04-22T15:40:00.612Z,33.30
2019-04-22T15:42:37.344Z,34.20
2019-04-22T15:45:08.448Z,33.30
2019-04-22T15:47:39.936Z,33.40
2019-04-22T15:50:12.225Z,34.50
2019-04-22T15:52:49.635Z,33.10
2019-04-22T15:55:18.548Z,35.60
2019-04-22T15:57:50.084Z,35.70
2019-04-22T16:00:35.557Z,35.40
2019-04-22T16:02:55.300Z,36.20
2019-04-22T16:05:28.001Z,35.20
2019-04-22T16:08:01.167Z,35.50
2019-04-22T16:10:35.349Z,36.50
2019-04-22T16:13:13.213Z,35.60
2019-04-22T16:15:40.760Z,36.10
2019-04-22T16:18:15.086Z,36.90
2019-04-22T16:20:48.088Z,37.00
2019-04-22T16:23:42.358Z,36.30
2019-04-22T16:26:18.058Z,36.30
2019-04-22T16:28:52.311Z,37.30
2019-04-22T16:31:22.895Z,38.10
2019-04-22T16:33:54.533Z,37.80
2019-04-22T16:36:26.935Z,38.00
2019-04-22T16:39:00.484Z,37.20
2019-04-22T16:41:34.807Z,38.40
2019-04-22T16:44:08.937Z,38.60
2019-04-22T16:46:41.715Z,38.70
2019-04-22T16:49:15.811Z,39.70
2019-04-22T16:51:47.828Z,39.70
2019-04-22T16:54:20.184Z,40.20
2019-04-22T16:56:52.370Z,39.60
2019-04-22T16:59:24.548Z,40.60
2019-04-22T17:02:19.028Z,40.20
2019-04-22T17:04:57.752Z,39.60
2019-04-22T17:07:29.984Z,40.60
2019-04-22T17:10:02.047Z,40.90
2019-04-22T17:12:45.746Z,42.00
2019-04-22T17:15:12.696Z,42.20
2019-04-22T17:17:45.215Z,41.50
2019-04-22T17:20:17.423Z,40.80
2019-04-22T17:22:49.439Z,42.30
2019-04-22T17:25:22.486Z,42.20
2019-04-22T17:27:55.241Z,42.00
2019-04-22T17:30:29.022Z,42.00
2019-04-22T17:33:00.947Z,42.00
2019-04-22T17:35:33.999Z,42.40
2019-04-22T17:38:16.361Z,41.20
2019-04-22T17:40:58.189Z,42.30
2019-04-22T17:43:40.549Z,42.50
2019-04-22T17:46:10.768Z,43.60
2019-04-22T17:49:04.016Z,42.90
2019-04-22T17:51:36.710Z,43.90
2019-04-22T17:54:07.333Z,43.50
2019-04-22T17:56:43.434Z,43.40
2019-04-22T17:59:15.535Z,44.10
2019-04-22T18:01:43.583Z,44.90
2019-04-22T18:04:04.708Z,45.10
2019-04-22T18:07:05.420Z,45.40
2019-04-22T18:09:53.123Z,46.00
2019-04-22T18:12:13.508Z,46.00
2019-04-22T18:14:49.750Z,46.40
2019-04-22T18:17:19.460Z,46.90
2019-04-22T18:19:46.288Z,47.20
2019-04-22T18:22:14.776Z,48.60
2019-04-22T18:24:49.375Z,48.80
2019-04-22T18:27:40.340Z,49.20
2019-04-22T18:29:57.137Z,49.60
2019-04-22T18:32:26.082Z,50.40
2019-04-22T18:35:00.852Z,51.00
2019-04-22T18:37:40.999Z,53.00
2019-04-22T18:40:15.069Z,54.00
2019-04-22T18:42:49.511Z,54.00
2019-04-22T18:45:35.558Z,54.70
2019-04-22T18:47:45.619Z,55.00
2019-04-22T18:50:33.999Z,55.40
2019-04-22T18:53:30.070Z,55.40
2019-04-22T18:56:03.775Z,55.70
2019-04-22T18:58:32.247Z,56.50
2019-04-22T19:00:51.303Z,57.10
2019-04-22T19:03:29.484Z,57.00
2019-04-22T19:06:31.875Z,57.40
2019-04-22T19:08:53.662Z,58.00
2019-04-22T19:11:22.368Z,57.80
2019-04-22T19:16:36.636Z,57.50
2019-04-22T19:19:27.518Z,57.50
2019-04-22T19:21:38.116Z,57.60
2019-04-22T19:24:09.607Z,57.50
2019-04-22T19:29:18.664Z,57.60
2019-04-22T19:31:52.662Z,57.40
2019-04-22T19:34:25.653Z,57.50
2019-04-22T19:36:59.347Z,57.90
2019-04-22T19:39:27.586Z,57.70
2019-04-22T19:42:13.676Z,58.20
2019-04-22T19:44:38.555Z,58.70
2019-04-22T19:47:25.157Z,58.30
2019-04-22T19:49:54.562Z,58.70
2019-04-22T19:52:24.110Z,58.20
2019-04-22T19:54:57.320Z,58.50
2019-04-22T19:57:22.441Z,58.50
2019-04-22T19:59:56.261Z,58.80
2019-04-22T20:02:57.555Z,59.00
2019-04-22T20:05:50.965Z,59.50
2019-04-22T20:08:21.530Z,59.40
2019-04-22T20:10:51.160Z,60.70
2019-04-22T20:13:30.894Z,60.00
2019-04-22T20:15:51.911Z,60.00
2019-04-22T20:18:44.065Z,60.50
2019-04-22T20:21:13.712Z,60.30
2019-04-22T20:23:32.926Z,60.70
2019-04-22T20:26:07.311Z,60.90
2019-04-22T20:28:51.269Z,61.10
2019-04-22T20:31:19.313Z,61.60
2019-04-22T20:33:59.740Z,61.40
2019-04-22T20:36:49.104Z,61.50
2019-04-22T20:38:53.621Z,61.80
2019-04-22T20:41:26.234Z,62.00
2019-04-22T20:44:13.367Z,62.00
2019-04-22T20:46:39.415Z,62.10
2019-04-22T20:49:11.807Z,62.90
2019-04-22T20:54:19.624Z,62.60
2019-04-22T20:56:51.949Z,62.70
2019-04-22T20:59:30.007Z,63.40
2019-04-22T21:01:57.902Z,63.00
2019-04-22T21:04:26.366Z,63.30
2019-04-22T21:07:05.132Z,63.60
2019-04-22T21:09:37.955Z,63.80
2019-04-22T21:12:09.046Z,63.70
2019-04-22T21:14:52.866Z,64.10
2019-04-22T21:17:24.897Z,63.60
2019-04-22T21:20:04.659Z,63.80
2019-04-22T21:22:28.532Z,64.00
2019-04-22T21:24:57.363Z,64.50
2019-04-22T21:27:42.452Z,64.60
2019-04-22T21:29:58.143Z,64.50
2019-04-22T21:32:38.851Z,64.70
2019-04-22T21:35:21.821Z,64.80
2019-04-22T21:37:54.829Z,65.00
2019-04-22T21:40:25.815Z,63.80
2019-04-22T21:42:59.673Z,66.00
2019-04-22T21:45:21.652Z,66.00
2019-04-22T21:48:13.783Z,66.00
2019-04-22T21:50:58.162Z,66.30
2019-04-22T21:53:20.442Z,66.60
2019-04-22T21:55:43.973Z,66.40
2019-04-22T21:58:38.142Z,66.30
2019-04-22T22:01:35.235Z,66.30
2019-04-22T22:04:03.116Z,66.70
2019-04-22T22:06:26.965Z,67.70
2019-04-22T22:09:08.959Z,67.30
2019-04-22T22:11:40.029Z,67.80
2019-04-22T22:14:11.535Z,67.80
2019-04-22T22:16:38.859Z,68.10
2019-04-22T22:19:17.824Z,68.70
2019-04-22T22:21:58.303Z,68.50
2019-04-22T22:24:32.918Z,69.00
2019-04-22T22:26:55.619Z,69.40
2019-04-22T22:29:43.377Z,69.70
2019-04-22T22:32:12.938Z,70.00
2019-04-22T22:34:43.628Z,70.50
2019-04-22T22:37:06.433Z,71.20
2019-04-22T22:39:38.117Z,70.70
2019-04-22T22:41:59.568Z,71.10
2019-04-22T22:44:36.899Z,71.10
2019-04-22T22:47:24.238Z,71.30
2019-04-22T22:49:57.633Z,71.60
2019-04-22T22:52:55.562Z,72.00
2019-04-22T22:55:06.872Z,72.30
2019-04-22T22:57:38.302Z,73.10
2019-04-22T23:00:11.528Z,72.90
2019-04-22T23:03:03.413Z,73.60
2019-04-22T23:05:19.373Z,73.30
2019-04-22T23:07:55.453Z,73.80
2019-04-22T23:10:26.667Z,73.70
2019-04-22T23:13:00.470Z,74.00
2019-04-22T23:15:31.506Z,73.90
2019-04-22T23:17:43.734Z,74.40
2019-04-22T23:20:18.464Z,74.50
2019-04-22T23:23:17.147Z,74.90
2019-04-22T23:25:53.283Z,75.30
2019-04-22T23:28:29.623Z,75.90
2019-04-22T23:31:21.061Z,75.60
2019-04-22T23:34:01.185Z,76.20
2019-04-22T23:36:54.209Z,76.70
2019-04-22T23:39:30.951Z,76.70
2019-04-22T23:42:10.948Z,77.40
2019-04-22T23:44:36.697Z,77.70
2019-04-22T23:47:04.870Z,78.00
2019-04-22T23:49:35.340Z,78.30
2019-04-22T23:52:23.836Z,78.50
2019-04-22T23:54:57.102Z,78.80
2019-04-22T23:57:36.642Z,78.70
